Time;durP1;ratioP1;P1;durP2;ratioP2;P2;SDS_P1;SDS_P2;PMS_P1;PMS_P2;Temp;Humidity;BMP_temperature;BMP_pressure;BME280_temperature;BME280_humidity;BME280_pressure;Samples;Min_cycle;Max_cycle;Signal;HPM_P1;HPM_P2
2021/03/16 00:01:12;;;;;;;6.95;2.33;;;5.40;99.90;;;6.17;89.92;100574.63;5030093;28;20266;-70
2021/03/16 00:03:50;;;;;;;8.15;2.17;;;5.40;99.90;;;6.14;89.86;100572.97;5029641;28;20190;-70
2021/03/16 00:06:43;;;;;;;7.45;2.00;;;5.30;99.90;;;6.14;90.23;100577.28;5026924;28;20190;-71
2021/03/16 00:09:10;;;;;;;6.95;2.35;;;5.30;99.90;;;6.13;90.11;100580.75;5027434;28;20213;-72
2021/03/16 00:11:37;;;;;;;6.13;2.08;;;5.30;99.90;;;6.12;90.38;100579.94;5015335;28;20249;-71
2021/03/16 00:14:04;;;;;;;9.13;2.58;;;5.30;99.90;;;6.12;90.08;100587.72;5025812;28;20661;-71
2021/03/16 00:16:30;;;;;;;6.03;2.13;;;5.30;99.90;;;6.13;90.27;100581.63;5032112;28;20192;-72
2021/03/16 00:18:57;;;;;;;7.75;2.30;;;5.30;99.90;;;6.10;90.02;100586.03;5029901;28;20684;-72
2021/03/16 00:21:23;;;;;;;6.40;2.25;;;5.30;99.90;;;6.08;90.31;100588.66;5030419;28;20486;-70
2021/03/16 00:23:50;;;;;;;8.10;2.42;;;5.30;99.90;;;6.02;90.15;100591.41;5030263;28;20198;-72
2021/03/16 00:26:17;;;;;;;8.10;2.33;;;5.20;99.90;;;6.00;90.53;100597.50;5033266;28;20189;-72
2021/03/16 00:28:43;;;;;;;7.38;2.45;;;5.20;99.90;;;6.02;90.45;100595.72;5023460;28;20591;-71
2021/03/16 00:31:10;;;;;;;9.82;2.92;;;5.20;99.90;;;6.01;90.34;100604.41;5026014;28;20228;-72
2021/03/16 00:33:36;;;;;;;10.77;3.10;;;5.20;99.90;;;6.02;90.28;100611.31;5028374;28;20186;-72
2021/03/16 00:36:03;;;;;;;11.95;3.28;;;5.20;99.90;;;6.00;90.44;100606.16;5021541;28;20201;-71
2021/03/16 00:38:30;;;;;;;10.70;3.20;;;5.20;99.90;;;5.97;90.36;100605.34;5024053;28;20288;-71
2021/03/16 00:40:56;;;;;;;8.93;2.97;;;5.20;99.90;;;5.96;90.26;100611.44;5027102;28;20217;-71
2021/03/16 00:43:23;;;;;;;8.90;2.70;;;5.20;99.90;;;5.95;90.61;100618.38;5021184;28;20378;-72
2021/03/16 00:45:50;;;;;;;10.10;3.10;;;5.20;99.90;;;5.94;90.59;100619.28;5021444;28;20221;-72
2021/03/16 00:48:18;;;;;;;11.07;3.15;;;5.20;99.90;;;5.97;90.79;100623.53;5028666;28;20692;-72
2021/03/16 00:50:46;;;;;;;11.20;3.33;;;5.20;99.90;;;6.03;90.66;100628.59;5021203;28;20221;-72
2021/03/16 00:53:13;;;;;;;9.55;3.28;;;5.30;99.90;;;6.03;90.60;100620.78;5025665;28;20216;-71
2021/03/16 00:55:43;;;;;;;7.22;2.38;;;5.30;99.90;;;6.07;90.59;100631.13;5030535;28;20189;-72
2021/03/16 00:58:12;;;;;;;7.68;2.30;;;5.30;99.90;;;6.11;90.14;100640.53;5031244;28;20251;-72
2021/03/16 01:00:39;;;;;;;8.05;2.70;;;5.30;99.90;;;6.12;90.29;100625.81;5015882;28;20189;-73
2021/03/16 01:03:06;;;;;;;7.63;2.50;;;5.30;99.90;;;6.12;90.00;100631.88;5031912;28;20197;-72
2021/03/16 01:05:33;;;;;;;9.13;2.58;;;5.30;99.90;;;6.09;90.06;100634.53;5025069;28;20208;-74
2021/03/16 01:08:00;;;;;;;7.97;2.53;;;5.30;99.90;;;6.04;89.86;100638.09;5024663;28;20198;-71
2021/03/16 01:10:30;;;;;;;6.82;2.53;;;5.30;99.90;;;5.98;89.93;100638.22;5029397;28;20194;-73
2021/03/16 01:12:56;;;;;;;7.15;2.70;;;5.20;99.90;;;5.98;90.32;100635.63;5019201;28;20214;-72
2021/03/16 01:15:23;;;;;;;7.70;2.60;;;5.20;99.90;;;5.96;90.27;100635.66;5038906;28;20209;-74
2021/03/16 01:17:53;;;;;;;7.93;2.80;;;5.20;99.90;;;5.92;90.29;100636.63;5026966;28;20222;-73
2021/03/16 01:20:24;;;;;;;9.10;2.72;;;5.20;99.90;;;5.91;90.36;100645.28;5021013;28;20699;-73
2021/03/16 01:22:50;;;;;;;9.60;3.00;;;5.20;99.90;;;5.93;90.39;100643.50;5031384;28;20300;-73
2021/03/16 01:25:17;;;;;;;9.23;3.22;;;5.20;99.90;;;5.92;90.61;100651.34;5023288;28;20197;-72
2021/03/16 01:27:43;;;;;;;10.23;2.90;;;5.20;99.90;;;5.92;91.27;100652.19;5022817;28;20285;-72
2021/03/16 01:30:11;;;;;;;8.02;2.72;;;5.20;99.90;;;5.94;90.69;100657.34;5026237;28;20665;-72
2021/03/16 01:32:38;;;;;;;8.55;2.78;;;5.20;99.90;;;5.98;90.59;100653.78;5026587;28;20721;-72
2021/03/16 01:35:09;;;;;;;11.38;3.00;;;5.20;99.90;;;5.97;90.60;100657.28;5025587;28;20291;-71
2021/03/16 01:37:37;;;;;;;10.38;3.42;;;5.20;99.90;;;5.95;90.67;100664.25;5022231;28;20250;-71
2021/03/16 01:40:10;;;;;;;10.27;3.58;;;5.20;99.90;;;5.94;90.55;100666.00;5028486;28;20190;-71
2021/03/16 01:42:36;;;;;;;9.38;3.28;;;5.20;99.90;;;5.93;90.61;100663.41;5018356;28;20267;-72
2021/03/16 01:45:09;;;;;;;11.27;3.22;;;5.10;99.90;;;5.91;90.65;100666.03;5027691;28;20686;-73
2021/03/16 01:47:35;;;;;;;9.32;3.85;;;5.10;99.90;;;5.89;90.73;100672.16;5023859;28;20196;-73
2021/03/16 01:50:04;;;;;;;10.02;3.38;;;5.10;99.90;;;5.91;90.99;100668.63;5030791;28;20217;-73
2021/03/16 01:52:32;;;;;;;13.45;3.20;;;5.20;99.90;;;5.96;91.02;100671.16;5022771;28;20285;-73
2021/03/16 01:55:01;;;;;;;8.82;3.17;;;5.20;99.90;;;5.94;90.74;100685.91;5026307;28;20200;-72
2021/03/16 01:57:29;;;;;;;9.48;2.97;;;5.10;99.90;;;5.93;90.71;100677.25;5030531;28;20198;-73
2021/03/16 02:00:16;;;;;;;9.70;2.83;;;5.10;99.90;;;5.90;90.54;100687.72;5030286;28;20227;-73
2021/03/16 02:03:01;;;;;;;9.95;3.08;;;5.10;99.90;;;5.83;90.37;100682.66;5017564;28;20217;-72
2021/03/16 02:05:46;;;;;;;8.93;3.20;;;5.10;99.90;;;5.80;90.47;100683.53;5012299;28;20276;-73
2021/03/16 02:08:55;;;;;;;9.48;2.80;;;5.10;99.90;;;5.79;89.94;100691.38;5012386;28;20312;-73
2021/03/16 02:11:48;;;;;;;8.68;2.40;;;5.10;99.90;;;5.79;89.79;100683.56;5026016;28;20300;-72
2021/03/16 02:14:37;;;;;;;8.02;2.78;;;5.10;99.90;;;5.76;89.62;100694.03;5021858;28;20216;-72
2021/03/16 02:17:31;;;;;;;6.63;2.40;;;5.00;99.90;;;5.72;89.25;100693.22;5023262;28;20256;-73
2021/03/16 02:20:41;;;;;;;7.68;3.10;;;5.00;99.90;;;5.71;89.29;100704.47;5027358;28;20269;-73
2021/03/16 02:23:45;;;;;;;5.55;2.28;;;5.00;99.90;;;5.69;89.13;100706.25;5026647;28;20209;-71
2021/03/16 02:26:45;;;;;;;9.15;2.50;;;5.00;99.90;;;5.66;89.07;100710.66;5029635;28;20212;-73
2021/03/16 02:29:42;;;;;;;9.90;3.17;;;5.00;99.90;;;5.67;88.74;100718.41;5026659;28;20336;-72
2021/03/16 02:32:31;;;;;;;9.52;2.85;;;5.00;99.90;;;5.69;88.82;100720.97;5019461;28;20221;-72
2021/03/16 02:35:18;;;;;;;8.13;2.65;;;5.00;99.90;;;5.69;88.43;100726.16;5022743;28;20216;-74
2021/03/16 02:38:06;;;;;;;8.13;2.80;;;5.00;99.90;;;5.71;88.50;100730.44;5025507;28;20219;-73
2021/03/16 02:40:54;;;;;;;7.80;2.25;;;5.00;99.90;;;5.73;88.36;100733.84;5027339;28;20210;-72
2021/03/16 02:43:39;;;;;;;7.40;2.47;;;5.10;99.90;;;5.72;88.10;100736.47;5027857;28;20673;-72
2021/03/16 02:46:27;;;;;;;7.53;2.50;;;5.00;99.90;;;5.69;87.99;100742.59;5019678;28;20300;-72
2021/03/16 02:49:13;;;;;;;9.77;2.40;;;5.00;99.90;;;5.70;87.67;100746.03;5029907;28;20262;-72
2021/03/16 02:52:02;;;;;;;8.55;2.25;;;5.00;99.90;;;5.71;87.96;100750.34;5025350;28;20300;-74
2021/03/16 02:54:51;;;;;;;8.70;2.47;;;5.10;99.90;;;5.71;87.90;100763.34;5023405;28;20567;-72
2021/03/16 02:57:39;;;;;;;6.53;2.25;;;5.10;99.90;;;5.67;87.23;100759.06;5022185;28;20205;-73
2021/03/16 03:00:26;;;;;;;9.75;2.45;;;5.00;99.90;;;5.67;87.64;100756.47;5026906;28;20259;-72
2021/03/16 03:03:12;;;;;;;9.93;2.67;;;5.00;99.90;;;5.69;87.77;100763.38;5027655;28;20744;-72
2021/03/16 03:05:58;;;;;;;8.60;2.60;;;5.10;99.90;;;5.74;87.62;100769.34;5030856;28;20263;-72
2021/03/16 03:08:46;;;;;;;8.68;2.40;;;5.10;99.90;;;5.74;87.32;100774.53;5023343;28;20215;-73
2021/03/16 03:11:32;;;;;;;9.35;2.45;;;5.10;99.90;;;5.71;87.17;100777.16;5023785;28;20224;-73
2021/03/16 03:14:17;;;;;;;7.00;2.35;;;5.00;99.90;;;5.69;87.37;100776.34;5027938;28;20569;-73
2021/03/16 03:17:03;;;;;;;9.18;2.42;;;5.10;99.90;;;5.68;87.41;100784.13;5031295;28;20330;-73
2021/03/16 03:19:48;;;;;;;9.30;2.45;;;5.10;99.90;;;5.65;87.18;100786.78;5028226;28;20638;-72
2021/03/16 03:22:43;;;;;;;8.43;2.75;;;5.00;99.90;;;5.63;87.38;100792.00;5021832;28;20243;-72
2021/03/16 03:25:33;;;;;;;8.10;2.50;;;5.00;99.90;;;5.58;87.38;100791.22;5022773;28;20727;-72
2021/03/16 03:28:24;;;;;;;9.45;2.97;;;4.90;99.90;;;5.55;87.58;100804.25;5030745;28;20189;-72
2021/03/16 03:31:11;;;;;;;9.70;2.90;;;4.90;99.90;;;5.51;87.63;100799.13;5018993;28;20213;-74
2021/03/16 03:33:57;;;;;;;8.95;2.95;;;4.90;99.90;;;5.44;87.64;100807.88;5015524;28;20696;-73
2021/03/16 03:36:46;;;;;;;8.35;2.75;;;4.80;99.90;;;5.41;87.97;100802.75;5022209;28;20211;-73
2021/03/16 03:39:35;;;;;;;10.75;2.22;;;4.70;99.90;;;5.36;87.75;100814.94;5029365;28;20348;-73
2021/03/16 03:42:21;;;;;;;10.32;2.80;;;4.70;99.90;;;5.32;88.18;100808.94;5017310;28;20237;-72
2021/03/16 03:45:10;;;;;;;7.30;2.65;;;4.60;99.90;;;5.35;88.05;100824.44;5032783;28;20735;-73
2021/03/16 03:48:00;;;;;;;10.27;2.83;;;4.60;99.90;;;5.40;88.04;100826.97;5034933;28;20251;-72
2021/03/16 03:50:50;;;;;;;9.40;2.78;;;4.70;99.90;;;5.43;87.50;100832.97;5026431;28;20197;-72
2021/03/16 03:53:39;;;;;;;8.30;2.70;;;4.70;99.90;;;5.47;87.31;100831.19;5030764;28;20574;-72
2021/03/16 03:56:24;;;;;;;10.75;2.45;;;4.70;99.90;;;5.48;87.17;100831.16;5032413;28;20216;-73
2021/03/16 03:59:11;;;;;;;7.63;2.10;;;4.70;99.90;;;5.46;87.17;100837.28;5033004;28;20216;-72
2021/03/16 04:01:56;;;;;;;9.57;2.72;;;4.70;99.90;;;5.47;86.92;100837.25;5027836;28;20264;-73
2021/03/16 04:04:42;;;;;;;6.50;2.13;;;4.80;99.90;;;5.54;86.70;100845.78;5014502;28;20709;-73
2021/03/16 04:07:29;;;;;;;7.65;2.50;;;4.80;99.90;;;5.54;86.52;100850.97;5028729;28;20204;-73
2021/03/16 04:10:16;;;;;;;8.85;2.10;;;4.80;99.90;;;5.52;86.13;100852.75;5031365;28;20240;-73
2021/03/16 04:13:01;;;;;;;9.13;2.00;;;4.80;99.90;;;5.52;86.05;100848.41;5021443;28;20578;-73
2021/03/16 04:15:47;;;;;;;8.50;2.45;;;4.80;99.90;;;5.49;85.79;100847.59;5026229;28;20336;-73
2021/03/16 04:18:33;;;;;;;8.00;2.13;;;4.80;99.90;;;5.48;85.60;100854.50;5029979;28;20227;-73
2021/03/16 04:21:18;;;;;;;7.40;2.15;;;4.80;99.90;;;5.42;85.69;100857.22;5030797;28;20774;-73
2021/03/16 04:24:04;;;;;;;8.82;2.50;;;4.80;99.90;;;5.40;85.45;100858.09;5034218;28;20196;-73
2021/03/16 04:26:50;;;;;;;7.90;2.10;;;4.80;99.90;;;5.38;85.45;100859.84;5032041;28;20610;-72
2021/03/16 04:29:35;;;;;;;8.30;2.38;;;4.80;99.90;;;5.42;85.78;100864.13;5023941;28;20559;-73
2021/03/16 04:32:20;;;;;;;8.73;2.50;;;4.70;99.90;;;5.46;85.37;100868.41;5028813;28;20220;-73
2021/03/16 04:35:08;;;;;;;7.78;2.03;;;4.80;99.90;;;5.45;85.05;100871.88;5026269;28;20200;-73
2021/03/16 04:37:53;;;;;;;8.55;2.33;;;4.80;99.90;;;5.46;85.36;100866.66;5028254;28;20228;-73
2021/03/16 04:40:38;;;;;;;8.52;2.42;;;4.80;99.90;;;5.48;85.05;100883.06;5024242;28;20220;-72
2021/03/16 04:43:23;;;;;;;9.70;2.80;;;4.80;99.90;;;5.49;84.83;100876.13;5025309;28;20200;-72
2021/03/16 04:46:09;;;;;;;10.43;2.85;;;4.80;99.90;;;5.47;84.30;100878.75;5032720;28;20211;-73
2021/03/16 04:48:54;;;;;;;10.80;2.72;;;4.80;99.90;;;5.43;84.25;100879.66;5027536;28;20204;-73
2021/03/16 04:51:40;;;;;;;7.05;2.25;;;4.80;99.90;;;5.44;84.19;100885.72;5032875;28;20216;-73
2021/03/16 04:54:26;;;;;;;12.93;2.50;;;4.80;99.90;;;5.38;83.98;100899.63;5033872;28;20235;-72
2021/03/16 04:57:11;;;;;;;7.60;2.40;;;4.70;99.90;;;5.33;83.99;100903.16;5031297;28;20688;-72
2021/03/16 04:59:57;;;;;;;11.23;2.95;;;4.70;99.90;;;5.32;84.01;100906.66;5021185;28;20221;-73
2021/03/16 05:02:42;;;;;;;7.43;2.50;;;4.70;99.90;;;5.33;83.92;100906.63;5014601;28;20229;-72
2021/03/16 05:05:27;;;;;;;10.30;2.92;;;4.70;99.90;;;5.39;83.60;100916.06;5029881;28;20196;-73
2021/03/16 05:08:12;;;;;;;9.05;2.50;;;4.80;99.90;;;5.40;83.69;100916.03;5024866;28;20235;-73
2021/03/16 05:10:57;;;;;;;11.38;2.85;;;4.80;99.90;;;5.46;83.53;100928.91;5032497;28;20555;-73
2021/03/16 05:13:42;;;;;;;7.25;2.30;;;4.80;99.90;;;5.53;83.31;100927.09;5026116;28;20625;-73
2021/03/16 05:16:28;;;;;;;9.63;2.63;;;4.90;99.90;;;5.52;82.90;100935.78;5023741;28;20279;-74
2021/03/16 05:19:12;;;;;;;8.15;2.40;;;4.90;99.90;;;5.47;82.56;100937.56;5028965;28;20236;-73
2021/03/16 05:21:58;;;;;;;10.35;2.60;;;4.90;99.90;;;5.46;82.67;100946.25;5032582;28;20220;-72
2021/03/16 05:24:43;;;;;;;7.70;2.55;;;4.80;99.90;;;5.45;82.43;100952.28;5030429;28;20246;-72
2021/03/16 05:27:28;;;;;;;14.00;3.35;;;4.90;99.90;;;5.49;82.00;100954.84;5016247;28;20550;-73
2021/03/16 05:30:15;;;;;;;12.95;4.38;;;4.90;99.90;;;5.59;81.26;100956.44;5029093;28;20195;-72
2021/03/16 05:33:01;;;;;;;10.63;2.90;;;5.00;99.90;;;5.64;80.61;100965.03;5025526;28;20233;-72
2021/03/16 05:35:47;;;;;;;13.05;3.78;;;5.00;99.90;;;5.67;80.17;100966.72;5012613;28;20228;-72
2021/03/16 05:38:32;;;;;;;14.77;4.72;;;5.00;99.90;;;5.68;79.43;100981.38;5012772;28;20323;-73
2021/03/16 05:41:18;;;;;;;10.80;3.47;;;5.00;99.90;;;5.70;78.96;100971.84;5016419;28;20231;-73
2021/03/16 05:44:04;;;;;;;12.02;3.88;;;5.00;99.90;;;5.71;78.71;100974.41;5029941;28;20247;-74
2021/03/16 05:46:49;;;;;;;10.75;3.10;;;5.10;99.90;;;5.72;78.82;100985.66;5023500;28;20192;-73
2021/03/16 05:49:38;;;;;;;9.35;2.75;;;5.10;99.90;;;5.77;79.03;100994.25;5027172;28;20201;-72
2021/03/16 05:52:23;;;;;;;12.63;5.25;;;5.10;99.90;;;5.79;79.11;100987.31;5023893;28;20584;-73
2021/03/16 05:55:10;;;;;;;9.65;2.92;;;5.10;99.90;;;5.80;78.88;100986.41;5032216;28;20200;-73
2021/03/16 05:57:55;;;;;;;9.90;3.60;;;5.20;99.90;;;5.74;78.98;100995.16;5032025;28;20285;-73
2021/03/16 06:00:39;;;;;;;9.02;3.00;;;5.10;99.90;;;5.67;78.95;100992.66;5027276;28;20194;-73
2021/03/16 06:03:25;;;;;;;8.73;2.50;;;5.10;99.90;;;5.59;79.21;100999.69;5029276;28;20204;-73
2021/03/16 06:06:14;;;;;;;9.10;2.13;;;5.00;99.90;;;5.59;79.38;101004.88;5023737;28;20263;-73
2021/03/16 06:08:58;;;;;;;8.93;2.55;;;5.10;99.90;;;5.64;79.48;101003.09;5024055;28;20202;-73
2021/03/16 06:11:47;;;;;;;7.63;2.60;;;5.10;99.90;;;5.63;79.24;101004.81;5023770;28;20224;-72
2021/03/16 06:14:33;;;;;;;8.55;2.97;;;5.10;99.90;;;5.63;79.22;101006.53;5023107;28;20626;-73
2021/03/16 06:17:18;;;;;;;7.97;2.50;;;5.10;99.90;;;5.65;79.24;101015.19;5027997;28;20200;-73
2021/03/16 06:20:05;;;;;;;7.72;2.53;;;5.10;99.90;;;5.62;79.05;101012.63;5024663;28;20221;-73
2021/03/16 06:23:03;;;;;;;8.10;2.65;;;5.10;99.90;;;5.57;79.16;101025.66;5019703;28;20243;-73
2021/03/16 06:25:48;;;;;;;6.32;2.25;;;5.10;99.90;;;5.52;78.97;101029.19;5024365;28;20205;-74
2021/03/16 06:28:34;;;;;;;8.57;2.80;;;5.00;99.90;;;5.55;79.31;101036.94;5030638;28;20251;-72
2021/03/16 06:31:24;;;;;;;8.70;3.40;;;5.10;99.90;;;5.58;79.40;101040.34;5014170;28;20292;-73
2021/03/16 06:34:20;;;;;;;8.90;2.90;;;5.10;99.90;;;5.57;79.12;101049.03;5017547;28;20279;-73
2021/03/16 06:37:05;;;;;;;9.35;3.10;;;5.10;99.90;;;5.57;78.85;101040.38;5019742;28;20677;-73
2021/03/16 06:39:54;;;;;;;10.55;3.17;;;5.10;99.90;;;5.61;78.78;101049.84;5015075;28;20224;-71
2021/03/16 06:42:39;;;;;;;6.78;2.58;;;5.10;99.90;;;5.63;78.87;101053.25;5028159;28;20304;-73
2021/03/16 06:45:31;;;;;;;10.55;2.75;;;5.20;99.90;;;5.64;78.58;101055.00;5020670;28;20204;-73
2021/03/16 06:48:19;;;;;;;10.25;2.80;;;5.20;99.90;;;5.66;78.23;101059.28;5015310;28;20217;-73
2021/03/16 06:51:13;;;;;;;10.15;2.67;;;5.20;99.90;;;5.67;78.19;101065.34;5022743;28;20219;-71
2021/03/16 06:54:09;;;;;;;12.00;2.45;;;5.20;99.90;;;5.63;77.76;101069.69;5030625;28;20323;-72
2021/03/16 06:56:57;;;;;;;8.82;2.28;;;5.20;99.90;;;5.64;77.81;101071.44;5024834;28;20510;-71
2021/03/16 06:59:42;;;;;;;7.30;2.38;;;5.20;99.90;;;5.67;77.72;101078.31;5028210;28;20299;-73
2021/03/16 07:02:30;;;;;;;7.85;2.47;;;5.20;99.90;;;5.74;77.63;101079.97;5022750;28;20294;-72
2021/03/16 07:05:26;;;;;;;8.43;2.00;;;5.30;99.90;;;5.81;77.27;101081.63;5014722;28;20288;-73
2021/03/16 07:08:14;;;;;;;7.55;2.30;;;5.40;99.90;;;5.82;76.97;101080.72;5019765;28;20244;-73
2021/03/16 07:11:00;;;;;;;7.07;2.30;;;5.40;99.90;;;5.85;76.61;101088.50;5031216;28;20341;-73
2021/03/16 07:13:47;;;;;;;9.75;2.25;;;5.40;99.90;;;5.90;76.56;101095.38;5031047;28;20203;-73
2021/03/16 07:16:32;;;;;;;5.88;1.85;;;5.50;99.90;;;5.96;76.36;101092.69;5021769;28;20258;-73
2021/03/16 07:19:19;;;;;;;7.72;2.30;;;5.50;99.90;;;5.97;75.88;101098.75;5014948;28;20680;-72
2021/03/16 07:22:07;;;;;;;8.10;2.30;;;5.60;99.90;;;5.98;75.71;101100.44;5021234;28;20293;-72
2021/03/16 07:24:54;;;;;;;8.43;1.73;;;5.60;99.90;;;5.93;75.68;101108.31;5031946;28;20373;-72
2021/03/16 07:27:41;;;;;;;6.80;2.25;;;5.60;99.90;;;5.96;75.60;101105.66;5028057;28;20200;-71
2021/03/16 07:30:28;;;;;;;7.03;2.30;;;5.70;99.90;;;6.00;75.54;101111.69;5022167;28;20205;-72
2021/03/16 07:33:14;;;;;;;6.90;2.17;;;5.70;99.90;;;6.00;75.52;101115.16;5027465;28;20216;-71
2021/03/16 07:35:59;;;;;;;8.32;2.28;;;5.70;99.90;;;6.07;75.45;101119.38;5028282;28;20607;-74
2021/03/16 07:38:46;;;;;;;8.90;2.53;;;5.80;99.90;;;6.09;75.25;101127.16;5025110;28;20228;-72
2021/03/16 07:41:32;;;;;;;11.35;2.40;;;5.70;99.90;;;6.03;75.44;101135.00;5029784;28;20740;-72
2021/03/16 07:44:19;;;;;;;7.65;2.55;;;5.70;99.90;;;5.98;75.83;101136.81;5021620;28;20558;-69
2021/03/16 07:47:05;;;;;;;7.75;2.15;;;5.70;99.90;;;5.93;75.96;101142.06;5016641;28;20300;-71
2021/03/16 07:50:01;;;;;;;8.00;2.17;;;5.60;99.90;;;5.85;76.20;101141.31;5016656;28;20588;-72
2021/03/16 07:52:47;;;;;;;6.43;2.30;;;5.60;99.90;;;5.85;76.71;101133.50;5021797;28;20251;-72
2021/03/16 07:55:33;;;;;;;10.80;2.47;;;5.60;99.90;;;5.88;76.55;101156.84;5014188;28;20228;-71
2021/03/16 07:58:26;;;;;;;8.10;2.55;;;5.60;99.90;;;5.84;76.62;101160.38;5009945;28;20650;-69
2021/03/16 08:01:11;;;;;;;9.45;2.25;;;5.60;99.90;;;5.94;76.96;101153.31;5013100;28;20249;-71
2021/03/16 08:04:08;;;;;;;9.02;2.33;;;5.70;99.90;;;6.01;76.68;101165.38;5019294;28;20199;-69
2021/03/16 08:07:02;;;;;;;8.90;2.95;;;5.80;99.90;;;6.07;76.31;101175.66;5015908;28;20207;-69
2021/03/16 08:09:51;;;;;;;11.00;3.03;;;5.80;99.90;;;6.22;76.04;101172.88;5015678;28;20216;-72
2021/03/16 08:12:36;;;;;;;11.82;2.85;;;5.90;99.90;;;6.35;75.71;101177.03;5021743;28;20236;-72
2021/03/16 08:15:22;;;;;;;8.93;2.20;;;6.10;99.90;;;6.26;74.87;101178.00;5020175;28;20701;-71
2021/03/16 08:18:07;;;;;;;8.80;2.40;;;6.00;99.90;;;6.24;74.53;101173.72;5009896;28;21612;-74
2021/03/16 08:20:53;;;;;;;7.57;2.10;;;6.00;99.90;;;6.30;74.20;101179.69;5017670;28;20204;-72
2021/03/16 08:23:40;;;;;;;7.00;2.00;;;6.10;99.90;;;6.35;73.95;101182.22;5017920;28;20201;-73
2021/03/16 08:26:25;;;;;;;6.63;2.05;;;6.10;99.90;;;6.43;73.50;101184.75;5021870;28;20204;-72
2021/03/16 08:29:10;;;;;;;10.63;2.10;;;6.20;99.90;;;6.47;73.25;101184.69;5013857;28;20220;-71
2021/03/16 08:31:58;;;;;;;8.95;2.60;;;6.30;99.90;;;6.49;73.16;101185.53;5014948;28;20733;-72
2021/03/16 08:34:45;;;;;;;9.63;2.40;;;6.30;99.90;;;6.44;73.76;101192.53;5019713;28;20201;-71
2021/03/16 08:37:33;;;;;;;7.32;2.30;;;6.30;99.90;;;6.42;73.98;101199.47;5010866;28;20233;-70
2021/03/16 08:40:23;;;;;;;7.90;2.47;;;6.30;99.90;;;6.38;74.57;101203.84;5018111;28;20279;-71
2021/03/16 08:43:10;;;;;;;9.68;2.83;;;6.20;99.90;;;6.41;74.70;101202.09;5011729;28;20205;-69
2021/03/16 08:45:56;;;;;;;12.13;2.72;;;6.20;99.90;;;6.39;75.06;101202.13;5021242;28;20205;-73
2021/03/16 08:48:45;;;;;;;9.15;2.53;;;6.20;99.90;;;6.32;75.20;101208.25;5011167;28;20212;-72
2021/03/16 08:51:33;;;;;;;9.05;2.95;;;6.10;99.90;;;6.31;75.26;101211.75;5016257;28;20300;-71
2021/03/16 08:54:29;;;;;;;8.90;2.95;;;6.10;99.90;;;6.30;75.49;101215.22;5017143;28;20229;-71
2021/03/16 08:57:18;;;;;;;8.13;2.75;;;6.00;99.90;;;6.29;75.78;101210.91;5017860;28;20220;-69
2021/03/16 09:00:05;;;;;;;9.30;2.67;;;6.00;99.90;;;6.37;75.97;101216.88;5017070;28;20217;-71
2021/03/16 09:02:51;;;;;;;12.23;2.95;;;6.10;99.90;;;6.46;75.84;101227.16;5020413;28;20283;-72
2021/03/16 09:05:36;;;;;;;8.98;2.40;;;6.10;99.90;;;6.45;75.21;101233.22;5018761;28;20317;-71
2021/03/16 09:08:21;;;;;;;8.95;2.53;;;6.10;99.90;;;6.48;74.89;101230.56;5004454;28;20804;-71
2021/03/16 09:11:09;;;;;;;12.35;3.25;;;6.10;99.90;;;6.58;74.52;101234.78;5019174;28;20232;-72
2021/03/16 09:13:54;;;;;;;8.30;2.80;;;6.30;99.90;;;6.71;74.03;101238.09;5016284;28;20227;-72
2021/03/16 09:16:43;;;;;;;8.65;2.78;;;6.40;99.90;;;6.76;73.85;101231.09;5084942;27;674515;-71
2021/03/16 09:19:31;;;;;;;8.68;2.50;;;6.50;99.90;;;6.83;73.73;101236.16;5084765;28;20239;-71
2021/03/16 09:22:17;;;;;;;9.48;2.45;;;6.60;99.90;;;6.93;72.56;101237.75;5077240;28;20293;-68
2021/03/16 09:25:03;;;;;;;7.60;2.20;;;6.60;99.90;;;7.03;72.48;101236.72;5068661;28;20305;-71
2021/03/16 09:27:50;;;;;;;7.35;2.22;;;6.80;99.90;;;7.15;72.20;101226.16;5055911;28;20405;-70
2021/03/16 09:30:38;;;;;;;7.15;2.00;;;6.90;99.90;;;7.28;71.97;101232.88;5063763;28;20211;-73
2021/03/16 09:33:25;;;;;;;7.40;2.53;;;7.10;99.90;;;7.36;71.34;101232.78;5067760;28;20253;-70
2021/03/16 09:36:11;;;;;;;9.88;2.63;;;7.20;99.90;;;7.50;70.88;101230.81;5066759;28;20223;-70
2021/03/16 09:38:57;;;;;;;9.00;2.13;;;7.30;99.90;;;7.46;70.25;101235.19;5058850;28;20326;-72
2021/03/16 09:41:35;;;;;;;11.55;2.40;;;7.30;99.90;;;7.52;70.11;101232.50;5045624;28;20215;-72
2021/03/16 09:44:01;;;;;;;6.32;1.75;;;7.40;99.90;;;7.63;69.39;101232.31;5045846;28;20204;-71
2021/03/16 09:46:28;;;;;;;5.93;2.15;;;7.50;99.90;;;7.79;68.74;101227.72;5068947;28;20672;-69
2021/03/16 09:48:55;;;;;;;9.55;2.20;;;7.60;99.90;;;7.88;68.32;101235.34;5062161;28;20192;-71
2021/03/16 09:51:24;;;;;;;7.95;1.70;;;7.70;99.90;;;7.79;68.16;101230.31;5068197;28;20247;-70
2021/03/16 09:53:53;;;;;;;5.45;1.88;;;7.70;99.90;;;7.77;67.87;101238.13;5063855;28;21028;-72
2021/03/16 09:56:25;;;;;;;8.30;2.33;;;7.60;99.90;;;7.80;67.76;101242.44;5043855;28;20731;-68
2021/03/16 09:58:52;;;;;;;6.63;2.17;;;7.60;99.90;;;7.85;67.65;101244.09;5064465;28;20271;-71
2021/03/16 10:01:22;;;;;;;8.32;2.03;;;7.70;99.90;;;7.92;67.57;101244.81;5047253;28;21097;-70
2021/03/16 10:03:57;;;;;;;6.25;2.00;;;7.80;99.90;;;7.99;67.34;101244.66;5046618;28;20585;-69
2021/03/16 10:06:35;;;;;;;8.02;1.90;;;7.80;99.90;;;8.15;66.82;101253.94;5070476;28;20574;-73
2021/03/16 10:09:14;;;;;;;7.15;2.25;;;7.90;99.90;;;8.23;66.62;101245.94;5053372;28;20191;-69
2021/03/16 10:11:40;;;;;;;6.38;1.95;;;8.10;99.90;;;8.26;65.94;101241.56;5062779;28;20281;-70
2021/03/16 10:14:06;;;;;;;9.18;2.10;;;8.10;99.90;;;8.28;65.37;101246.75;5066677;28;20193;-70
2021/03/16 10:16:33;;;;;;;7.53;2.03;;;8.10;99.90;;;8.26;65.56;101243.31;5050285;28;20602;-69
2021/03/16 10:19:03;;;;;;;6.75;1.92;;;8.10;99.90;;;8.12;64.75;101242.72;5059908;28;20219;-70
2021/03/16 10:21:37;;;;;;;4.78;1.58;;;8.00;99.90;;;8.04;64.66;101242.84;5065629;28;20220;-73
2021/03/16 10:24:06;;;;;;;6.55;1.80;;;7.90;99.90;;;8.05;64.69;101241.09;5063878;28;20272;-70
2021/03/16 10:26:33;;;;;;;7.85;1.95;;;7.90;99.90;;;8.12;64.98;101251.38;5040093;28;20205;-71
2021/03/16 10:29:10;;;;;;;5.70;1.70;;;8.00;99.90;;;8.25;65.18;101252.03;5050331;28;20188;-72
2021/03/16 10:31:36;;;;;;;4.65;1.50;;;8.10;99.90;;;8.28;64.92;101242.41;5051080;28;20710;-74
2021/03/16 10:34:03;;;;;;;6.05;2.00;;;8.10;99.90;;;8.32;64.93;101243.22;5051406;28;20200;-73
2021/03/16 10:36:34;;;;;;;8.48;2.42;;;8.20;99.90;;;8.39;65.00;101247.44;5054278;28;20220;-69
2021/03/16 10:39:02;;;;;;;6.70;1.83;;;8.20;99.90;;;8.41;65.65;101249.09;5047671;28;20729;-70
2021/03/16 10:41:28;;;;;;;7.25;1.90;;;8.20;99.90;;;8.33;64.71;101244.91;5049834;28;20646;-69
2021/03/16 10:43:55;;;;;;;6.00;1.67;;;8.20;99.90;;;8.41;64.57;101245.63;5051177;28;20196;-70
2021/03/16 10:46:21;;;;;;;5.00;1.70;;;8.30;99.90;;;8.51;63.98;101239.31;5049428;28;20844;-71
2021/03/16 10:48:48;;;;;;;4.68;1.55;;;8.40;99.90;;;8.71;63.48;101244.97;5042018;28;20279;-71
2021/03/16 10:51:16;;;;;;;5.35;1.45;;;8.60;99.90;;;8.96;62.49;101248.78;5049226;28;20296;-70
2021/03/16 10:53:42;;;;;;;5.18;1.50;;;8.80;99.90;;;9.01;61.44;101252.13;5032939;28;20195;-69
2021/03/16 10:56:09;;;;;;;6.18;1.58;;;8.80;99.90;;;8.90;61.75;101248.91;5052302;28;20797;-70
2021/03/16 10:58:35;;;;;;;4.15;1.42;;;8.80;99.90;;;8.84;61.71;101251.69;5045291;28;20200;-71
2021/03/16 11:01:01;;;;;;;5.22;1.70;;;8.70;99.90;;;8.68;61.82;101248.53;5051660;28;20200;-71
2021/03/16 11:03:28;;;;;;;5.72;1.25;;;8.50;99.90;;;8.61;62.08;101257.38;5044935;28;20291;-70
2021/03/16 11:05:54;;;;;;;5.30;1.58;;;8.40;99.90;;;8.47;62.47;101256.78;5050365;28;20643;-71
2021/03/16 11:08:21;;;;;;;4.13;1.67;;;8.30;99.90;;;8.30;62.94;101260.63;5023568;28;20204;-73
2021/03/16 11:10:47;;;;;;;6.72;1.80;;;8.10;99.90;;;8.12;62.96;101253.97;5048474;28;20192;-73
2021/03/16 11:13:14;;;;;;;6.82;1.80;;;7.90;99.90;;;8.11;63.75;101259.22;5051346;28;20251;-70
2021/03/16 11:15:40;;;;;;;5.55;1.58;;;7.90;99.90;;;8.19;64.11;101263.41;5044757;28;20261;-72
2021/03/16 11:18:06;;;;;;;9.25;1.80;;;8.00;99.90;;;8.36;64.32;101263.09;5041775;28;20833;-72
2021/03/16 11:20:33;;;;;;;6.68;1.92;;;8.10;99.90;;;8.49;64.00;101264.59;5038239;28;20910;-70
2021/03/16 11:22:59;;;;;;;7.30;1.77;;;8.30;99.90;;;8.49;63.49;101262.81;5030296;28;20212;-72